createdAt,value
2023-01-21T00:01:07.760Z,-6.66
2023-01-21T00:03:34.796Z,-6.68
2023-01-21T00:06:01.954Z,-6.66
2023-01-21T00:08:28.863Z,-6.66
2023-01-21T00:10:55.700Z,-6.65
2023-01-21T00:13:22.791Z,-6.75
2023-01-21T00:15:49.853Z,-6.61
2023-01-21T00:18:16.712Z,-6.64
2023-01-21T00:20:45.636Z,-6.58
2023-01-21T00:23:13.075Z,-6.61
2023-01-21T00:25:39.804Z,-6.76
2023-01-21T00:28:06.649Z,-6.65
2023-01-21T00:30:33.714Z,-6.62
2023-01-21T00:33:00.500Z,-6.62
2023-01-21T00:35:27.250Z,-6.58
2023-01-21T00:37:54.056Z,-6.43
2023-01-21T00:40:21.673Z,-6.33
2023-01-21T00:42:48.447Z,-6.28
2023-01-21T00:45:15.334Z,-6.25
2023-01-21T00:47:42.196Z,-6.29
2023-01-21T00:50:10.209Z,-6.29
2023-01-21T00:52:37.163Z,-6.20
2023-01-21T00:55:04.705Z,-6.30
2023-01-21T00:57:31.652Z,-6.20
2023-01-21T00:59:58.552Z,-6.21
2023-01-21T01:02:25.393Z,-6.28
2023-01-21T01:04:52.176Z,-6.17
2023-01-21T01:07:18.933Z,-6.22
2023-01-21T01:09:45.659Z,-6.27
2023-01-21T01:12:12.389Z,-6.13
2023-01-21T01:14:39.131Z,-6.04
2023-01-21T01:17:05.865Z,-6.13
2023-01-21T01:19:32.577Z,-6.29
2023-01-21T01:21:59.408Z,-6.20
2023-01-21T01:24:26.121Z,-6.27
2023-01-21T01:26:52.915Z,-6.11
2023-01-21T01:29:19.682Z,-6.10
2023-01-21T01:31:46.513Z,-6.03
2023-01-21T01:34:13.344Z,-6.00
2023-01-21T01:36:40.076Z,-6.02
2023-01-21T01:39:07.708Z,-5.93
2023-01-21T01:41:35.520Z,-6.03
2023-01-21T01:44:56.561Z,-5.97
2023-01-21T01:47:42.599Z,-6.04
2023-01-21T01:50:13.724Z,-5.97
2023-01-21T01:52:42.550Z,-5.91
2023-01-21T01:55:11.304Z,-6.03
2023-01-21T01:57:43.229Z,-6.00
2023-01-21T02:00:12.664Z,-6.09
2023-01-21T02:02:43.413Z,-6.03
2023-01-21T02:05:11.485Z,-6.05
2023-01-21T02:07:43.959Z,-6.07
2023-01-21T02:10:14.661Z,-6.10
2023-01-21T02:12:43.463Z,-6.11
2023-01-21T02:15:10.916Z,-6.18
2023-01-21T02:17:59.089Z,-6.12
2023-01-21T02:21:14.703Z,-6.22
2023-01-21T02:24:22.884Z,-6.35
2023-01-21T02:27:30.816Z,-6.33
2023-01-21T02:30:30.998Z,-6.36
2023-01-21T02:33:48.825Z,-6.33
2023-01-21T02:36:43.995Z,-6.42
2023-01-21T02:39:33.357Z,-6.41
2023-01-21T02:42:23.386Z,-6.50
2023-01-21T02:45:14.064Z,-6.46
2023-01-21T02:48:06.176Z,-6.44
2023-01-21T02:50:38.940Z,-6.51
2023-01-21T02:53:06.015Z,-6.53
2023-01-21T02:55:37.416Z,-6.51
2023-01-21T02:58:15.028Z,-6.51
2023-01-21T03:01:11.386Z,-6.60
2023-01-21T03:04:14.343Z,-6.71
2023-01-21T03:06:56.466Z,-6.89
2023-01-21T03:09:30.957Z,-6.80
2023-01-21T03:12:30.915Z,-6.84
2023-01-21T03:15:26.135Z,-6.83
2023-01-21T03:17:58.087Z,-6.92
2023-01-21T03:20:37.047Z,-7.06
2023-01-21T03:23:09.920Z,-6.98
2023-01-21T03:25:38.189Z,-7.13
2023-01-21T03:28:12.225Z,-7.16
2023-01-21T03:30:43.414Z,-7.19
2023-01-21T03:33:13.248Z,-7.45
2023-01-21T03:35:44.805Z,-7.48
2023-01-21T03:38:22.030Z,-7.46
2023-01-21T03:41:19.933Z,-7.45
2023-01-21T03:43:46.837Z,-7.54
2023-01-21T03:46:21.368Z,-7.65
2023-01-21T03:49:00.124Z,-7.66
2023-01-21T03:51:33.356Z,-7.70
2023-01-21T03:54:00.700Z,-7.78
2023-01-21T03:56:28.245Z,-7.80
2023-01-21T03:58:55.436Z,-7.77
2023-01-21T04:01:22.881Z,-8.01
2023-01-21T04:03:49.828Z,-7.93
2023-01-21T04:06:22.261Z,-8.00
2023-01-21T04:08:49.608Z,-8.06
2023-01-21T04:11:16.917Z,-8.10
2023-01-21T04:13:43.828Z,-8.09
2023-01-21T04:16:10.590Z,-8.14
2023-01-21T04:18:37.676Z,-8.10
2023-01-21T04:21:04.556Z,-8.18
2023-01-21T04:23:31.340Z,-8.27
2023-01-21T04:25:58.161Z,-8.25
2023-01-21T04:28:25.034Z,-8.13
2023-01-21T04:30:51.786Z,-8.25
2023-01-21T04:33:18.642Z,-8.27
2023-01-21T04:35:45.456Z,-8.25
2023-01-21T04:38:12.193Z,-8.35
2023-01-21T04:40:38.975Z,-8.41
2023-01-21T04:43:05.719Z,-8.57
2023-01-21T04:45:32.451Z,-8.46
2023-01-21T04:47:59.286Z,-8.45
2023-01-21T04:50:26.219Z,-8.50
2023-01-21T04:52:53.105Z,-8.45
2023-01-21T04:55:19.876Z,-8.61
2023-01-21T04:57:46.700Z,-8.52
2023-01-21T05:00:14.170Z,-8.60
2023-01-21T05:02:41.009Z,-8.62
2023-01-21T05:05:08.223Z,-8.85
2023-01-21T05:07:35.435Z,-8.85
2023-01-21T05:10:02.243Z,-8.84
2023-01-21T05:12:29.080Z,-9.00
2023-01-21T05:14:57.848Z,-8.96
2023-01-21T05:17:24.774Z,-9.14
2023-01-21T05:19:51.919Z,-9.15
2023-01-21T05:22:19.270Z,-9.21
2023-01-21T05:24:46.027Z,-9.32
2023-01-21T05:27:12.806Z,-9.23
2023-01-21T05:29:40.527Z,-9.32
2023-01-21T05:32:07.456Z,-9.40
2023-01-21T05:34:34.202Z,-9.45
2023-01-21T05:37:00.951Z,-9.48
2023-01-21T05:39:27.835Z,-9.52
2023-01-21T05:41:54.607Z,-9.51
2023-01-21T05:44:21.329Z,-9.63
2023-01-21T05:46:48.068Z,-9.52
2023-01-21T05:49:14.779Z,-9.54
2023-01-21T05:51:41.552Z,-9.65
2023-01-21T05:54:08.274Z,-9.69
2023-01-21T05:56:35.008Z,-9.66
2023-01-21T05:59:01.788Z,-9.67
2023-01-21T06:01:28.539Z,-9.65
2023-01-21T06:03:55.324Z,-9.67
2023-01-21T06:06:22.463Z,-9.61
2023-01-21T06:08:49.255Z,-9.62
2023-01-21T06:11:16.054Z,-9.71
2023-01-21T06:13:42.801Z,-9.71
2023-01-21T06:16:09.651Z,-9.65
2023-01-21T06:18:36.449Z,-9.70
2023-01-21T06:21:03.307Z,-9.71
2023-01-21T06:23:30.027Z,-9.79
2023-01-21T06:26:02.979Z,-9.83
2023-01-21T06:28:31.133Z,-9.82
2023-01-21T06:30:57.992Z,-9.92
2023-01-21T06:33:24.815Z,-9.78
2023-01-21T06:35:51.590Z,-9.79
2023-01-21T06:38:18.307Z,-9.70
2023-01-21T06:40:45.107Z,-9.71
2023-01-21T06:43:11.897Z,-9.82
2023-01-21T06:45:38.668Z,-9.71
2023-01-21T06:48:05.630Z,-9.83
2023-01-21T06:50:32.680Z,-9.78
2023-01-21T06:52:59.501Z,-9.82
2023-01-21T06:55:26.304Z,-9.91
2023-01-21T06:57:53.043Z,-10.02
2023-01-21T07:00:20.445Z,-10.11
2023-01-21T07:02:47.262Z,-10.23
2023-01-21T07:05:15.408Z,-10.17
2023-01-21T07:07:42.441Z,-10.25
2023-01-21T07:10:10.260Z,-10.32
2023-01-21T07:12:37.113Z,-10.17
2023-01-21T07:15:04.813Z,-10.20
2023-01-21T07:17:31.601Z,-10.10
2023-01-21T07:19:58.502Z,-10.06
2023-01-21T07:22:25.272Z,-10.03
2023-01-21T07:24:51.986Z,-10.06
2023-01-21T07:27:18.844Z,-9.96
2023-01-21T07:29:45.683Z,-9.91
2023-01-21T07:32:12.490Z,-9.86
2023-01-21T07:34:39.227Z,-9.88
2023-01-21T07:37:06.019Z,-9.91
2023-01-21T07:39:32.762Z,-9.74
2023-01-21T07:41:59.479Z,-9.84
2023-01-21T07:44:26.270Z,-9.91
2023-01-21T07:46:53.207Z,-9.83
2023-01-21T07:49:19.982Z,-9.79
2023-01-21T07:51:47.771Z,-9.82
2023-01-21T07:54:15.558Z,-9.80
2023-01-21T07:56:42.487Z,-9.75
2023-01-21T07:59:11.411Z,-9.80
2023-01-21T08:01:38.225Z,-9.62
2023-01-21T08:04:07.143Z,-9.57
2023-01-21T08:06:34.030Z,-9.47
2023-01-21T08:09:00.774Z,-9.38
2023-01-21T08:11:27.522Z,-9.26
2023-01-21T08:13:54.325Z,-9.14
2023-01-21T08:16:21.156Z,-9.02
2023-01-21T08:18:47.927Z,-8.98
2023-01-21T08:21:14.682Z,-8.85
2023-01-21T08:23:41.452Z,-8.72
2023-01-21T08:26:08.574Z,-8.57
2023-01-21T08:28:35.401Z,-8.25
2023-01-21T08:31:09.141Z,-8.17
2023-01-21T08:33:36.183Z,-8.14
2023-01-21T08:36:06.311Z,-7.97
2023-01-21T08:38:35.088Z,-7.80
2023-01-21T08:41:01.840Z,-7.59
2023-01-21T08:43:28.612Z,-7.47
2023-01-21T08:46:01.670Z,-7.46
2023-01-21T08:48:29.877Z,-7.12
2023-01-21T08:51:00.588Z,-7.14
2023-01-21T08:53:28.158Z,-6.86
2023-01-21T08:56:02.751Z,-6.82
2023-01-21T08:58:31.206Z,-6.71
2023-01-21T09:00:58.333Z,-6.60
2023-01-21T09:03:25.441Z,-6.42
2023-01-21T09:05:52.271Z,-6.30
2023-01-21T09:08:19.525Z,-6.23
2023-01-21T09:11:01.191Z,-6.05
2023-01-21T09:13:39.739Z,-5.82
2023-01-21T09:16:18.256Z,-5.72
2023-01-21T09:18:45.968Z,-5.45
2023-01-21T09:21:12.889Z,-5.35
2023-01-21T09:23:40.611Z,-5.16
2023-01-21T09:26:19.032Z,-4.92
2023-01-21T09:28:51.712Z,-4.66
2023-01-21T09:31:26.446Z,-4.58
2023-01-21T09:34:00.265Z,-4.22
2023-01-21T09:36:30.588Z,-4.07
2023-01-21T09:38:58.542Z,-3.98
2023-01-21T09:41:33.766Z,-3.82
2023-01-21T09:44:06.298Z,-3.71
2023-01-21T09:46:52.696Z,-3.59
2023-01-21T09:49:29.153Z,-3.49
2023-01-21T09:52:30.656Z,-3.38
2023-01-21T09:54:58.641Z,-3.28
2023-01-21T09:57:31.179Z,-3.17
2023-01-21T10:00:08.282Z,-3.12
2023-01-21T10:03:03.230Z,-2.96
2023-01-21T10:06:17.447Z,-2.86
2023-01-21T10:08:52.996Z,-2.83
2023-01-21T10:11:37.944Z,-2.88
2023-01-21T10:14:45.353Z,-2.65
2023-01-21T10:17:37.271Z,-2.67
2023-01-21T10:20:19.673Z,-2.57
2023-01-21T10:22:56.754Z,-2.65
2023-01-21T10:25:36.236Z,-2.57
2023-01-21T10:28:12.235Z,-2.39
2023-01-21T10:30:50.235Z,-2.30
2023-01-21T10:33:25.420Z,-2.23
2023-01-21T10:36:35.211Z,-2.04
2023-01-21T10:39:54.155Z,-1.89
2023-01-21T10:42:44.432Z,-1.82
2023-01-21T10:45:21.516Z,-2.07
2023-01-21T10:48:39.001Z,-1.93
2023-01-21T10:51:25.256Z,-1.98
2023-01-21T10:54:10.292Z,-1.97
2023-01-21T10:56:51.702Z,-1.98
2023-01-21T10:59:27.119Z,-1.95
2023-01-21T11:02:30.260Z,-1.90
2023-01-21T11:04:58.407Z,-1.92
2023-01-21T11:07:25.756Z,-1.97
2023-01-21T11:09:52.867Z,-1.95
2023-01-21T11:12:21.413Z,-1.85
2023-01-21T11:14:55.762Z,-1.95
2023-01-21T11:17:45.396Z,-1.76
2023-01-21T11:20:40.282Z,-1.63
2023-01-21T11:23:32.793Z,-1.71
2023-01-21T11:26:21.910Z,-1.87
2023-01-21T11:28:48.748Z,-1.95
2023-01-21T11:31:26.457Z,-1.87
2023-01-21T11:33:54.481Z,-1.93
2023-01-21T11:36:21.738Z,-1.82
2023-01-21T11:39:08.413Z,-1.83
2023-01-21T11:41:36.104Z,-1.85
2023-01-21T11:44:18.535Z,-1.70
2023-01-21T11:46:46.001Z,-1.87
2023-01-21T11:49:15.430Z,-1.80
2023-01-21T11:51:45.567Z,-1.74
2023-01-21T11:54:18.243Z,-1.73
2023-01-21T11:56:53.685Z,-1.85
2023-01-21T11:59:41.818Z,-1.89
2023-01-21T12:02:27.423Z,-1.95
2023-01-21T12:04:59.248Z,-1.87
2023-01-21T12:07:31.697Z,-1.95
2023-01-21T12:10:13.888Z,-1.90
2023-01-21T12:12:59.637Z,-1.95
2023-01-21T12:16:16.874Z,-2.10
2023-01-21T12:18:58.724Z,-1.93
2023-01-21T12:21:40.335Z,-1.92
2023-01-21T12:24:26.961Z,-2.05
2023-01-21T12:27:24.609Z,-1.98
2023-01-21T12:30:44.088Z,-2.16
2023-01-21T12:33:29.941Z,-2.28
2023-01-21T12:36:09.944Z,-2.30
2023-01-21T12:38:43.423Z,-2.10
2023-01-21T12:41:17.475Z,-2.13
2023-01-21T12:43:54.736Z,-2.09
2023-01-21T12:46:40.946Z,-2.19
2023-01-21T12:49:21.268Z,-2.15
2023-01-21T12:51:58.621Z,-2.04
2023-01-21T12:54:37.215Z,-1.95
2023-01-21T12:57:20.231Z,-2.03
2023-01-21T12:59:50.842Z,-2.00
2023-01-21T13:02:47.495Z,-2.01
2023-01-21T13:05:46.607Z,-2.07
2023-01-21T13:08:57.119Z,-2.15
2023-01-21T13:11:50.179Z,-2.18
2023-01-21T13:14:34.419Z,-2.20
2023-01-21T13:17:11.348Z,-2.13
2023-01-21T13:19:38.068Z,-2.09
2023-01-21T13:22:21.117Z,-2.08
2023-01-21T13:25:34.610Z,-2.03
2023-01-21T13:28:15.832Z,-2.09
2023-01-21T13:31:02.125Z,-2.16
2023-01-21T13:33:52.087Z,-2.11
2023-01-21T13:37:02.388Z,-2.10
2023-01-21T13:39:48.081Z,-2.12
2023-01-21T13:42:44.400Z,-2.17
2023-01-21T13:45:27.156Z,-2.00
2023-01-21T13:48:09.356Z,-2.13
2023-01-21T13:51:03.139Z,-2.13
2023-01-21T13:54:32.139Z,-2.12
2023-01-21T13:57:32.537Z,-2.21
2023-01-21T14:00:06.436Z,-2.16
2023-01-21T14:02:46.546Z,-2.05
2023-01-21T14:05:16.889Z,-2.06
2023-01-21T14:07:56.520Z,-2.07
2023-01-21T14:10:44.124Z,-2.15
2023-01-21T14:13:52.395Z,-2.14
2023-01-21T14:16:28.145Z,-1.92
2023-01-21T14:19:04.000Z,-1.91
2023-01-21T14:22:19.045Z,-1.94
2023-01-21T14:25:11.546Z,-2.02
2023-01-21T14:27:51.437Z,-2.00
2023-01-21T14:30:49.888Z,-2.06
2023-01-21T14:33:24.171Z,-1.99
2023-01-21T14:36:20.709Z,-2.04
2023-01-21T14:39:17.824Z,-2.07
2023-01-21T14:42:12.751Z,-2.07
2023-01-21T14:45:01.372Z,-2.05
2023-01-21T14:47:58.422Z,-1.98
2023-01-21T14:50:51.053Z,-2.00
2023-01-21T14:53:26.577Z,-1.97
2023-01-21T14:56:07.995Z,-1.95
2023-01-21T14:58:36.782Z,-2.10
2023-01-21T15:01:08.193Z,-2.01
2023-01-21T15:03:48.635Z,-1.84
2023-01-21T15:06:21.987Z,-1.90
2023-01-21T15:08:53.375Z,-1.84
2023-01-21T15:11:30.546Z,-2.09
2023-01-21T15:14:15.081Z,-2.01
2023-01-21T15:16:44.368Z,-1.92
2023-01-21T15:19:24.749Z,-1.87
2023-01-21T15:22:03.450Z,-1.95
2023-01-21T15:24:33.253Z,-1.95
2023-01-21T15:27:19.151Z,-1.97
2023-01-21T15:30:07.071Z,-2.08
2023-01-21T15:32:46.907Z,-2.10
2023-01-21T15:35:24.291Z,-2.03
2023-01-21T15:37:59.644Z,-2.03
2023-01-21T15:40:41.250Z,-2.01
2023-01-21T15:44:02.799Z,-1.90
2023-01-21T15:46:53.632Z,-1.96
2023-01-21T15:49:51.235Z,-2.15
2023-01-21T15:52:39.130Z,-2.08
2023-01-21T15:55:20.641Z,-2.03
2023-01-21T15:58:14.837Z,-1.98
2023-01-21T16:01:06.661Z,-2.11
2023-01-21T16:03:43.232Z,-2.08
2023-01-21T16:06:28.363Z,-2.25
2023-01-21T16:09:28.819Z,-2.17
2023-01-21T16:12:37.431Z,-2.13
2023-01-21T16:15:22.758Z,-2.18
2023-01-21T16:18:21.559Z,-2.16
2023-01-21T16:20:53.486Z,-2.03
2023-01-21T16:23:23.617Z,-1.97
2023-01-21T16:25:52.909Z,-2.04
2023-01-21T16:28:21.313Z,-2.12
2023-01-21T16:30:57.736Z,-2.10
2023-01-21T16:33:25.206Z,-2.13
2023-01-21T16:36:00.767Z,-2.23
2023-01-21T16:38:31.062Z,-2.20
2023-01-21T16:41:06.747Z,-2.14
2023-01-21T16:43:53.112Z,-2.01
2023-01-21T16:46:46.257Z,-2.09
2023-01-21T16:49:16.395Z,-2.16
2023-01-21T16:51:56.560Z,-2.15
2023-01-21T16:54:26.256Z,-1.95
2023-01-21T16:57:00.139Z,-2.04
2023-01-21T16:59:41.765Z,-2.02
2023-01-21T17:02:31.639Z,-2.01
2023-01-21T17:05:02.193Z,-1.93
2023-01-21T17:07:44.334Z,-1.94
2023-01-21T17:10:25.219Z,-2.08
2023-01-21T17:13:00.898Z,-1.93
2023-01-21T17:15:30.411Z,-1.96
2023-01-21T17:18:00.276Z,-2.00
2023-01-21T17:21:01.214Z,-1.91
2023-01-21T17:23:44.745Z,-2.07
2023-01-21T17:26:24.089Z,-2.00
2023-01-21T17:29:17.445Z,-1.97
2023-01-21T17:31:45.211Z,-2.02
2023-01-21T17:34:20.765Z,-2.02
2023-01-21T17:36:51.819Z,-1.98
2023-01-21T17:39:46.311Z,-2.05
2023-01-21T17:42:17.332Z,-2.05
2023-01-21T17:44:50.452Z,-2.07
2023-01-21T17:47:33.960Z,-2.04
2023-01-21T17:50:28.131Z,-1.96
2023-01-21T17:53:03.855Z,-1.92
2023-01-21T17:55:39.384Z,-2.02
2023-01-21T17:58:32.257Z,-1.93
2023-01-21T18:01:03.169Z,-2.01
2023-01-21T18:03:29.900Z,-1.95
2023-01-21T18:05:57.104Z,-2.03
2023-01-21T18:08:24.686Z,-1.99
2023-01-21T18:10:51.453Z,-2.03
2023-01-21T18:13:20.577Z,-1.98
2023-01-21T18:15:51.930Z,-2.04
2023-01-21T18:18:26.050Z,-2.04
2023-01-21T18:20:53.446Z,-2.10
2023-01-21T18:23:20.871Z,-2.07
2023-01-21T18:25:52.281Z,-2.02
2023-01-21T18:28:26.209Z,-2.09
2023-01-21T18:30:56.330Z,-1.98
2023-01-21T18:33:24.209Z,-2.04
2023-01-21T18:35:52.679Z,-2.10
2023-01-21T18:38:27.425Z,-2.28
2023-01-21T18:40:58.549Z,-2.18
2023-01-21T18:43:25.889Z,-2.17
2023-01-21T18:45:54.462Z,-2.11
2023-01-21T18:48:28.122Z,-2.20
2023-01-21T18:50:55.266Z,-2.20
2023-01-21T18:53:22.380Z,-2.24
2023-01-21T18:55:53.946Z,-2.24
2023-01-21T18:58:21.174Z,-2.17
2023-01-21T19:00:48.248Z,-2.23
2023-01-21T19:03:15.688Z,-2.30
2023-01-21T19:05:45.349Z,-2.12
2023-01-21T19:08:16.734Z,-2.21
2023-01-21T19:10:43.466Z,-2.25
2023-01-21T19:13:11.836Z,-2.26
2023-01-21T19:15:39.033Z,-2.21
2023-01-21T19:18:11.861Z,-2.18
2023-01-21T19:20:41.586Z,-2.16
2023-01-21T19:23:17.337Z,-2.22
2023-01-21T19:25:56.591Z,-2.33
2023-01-21T19:28:25.174Z,-2.20
2023-01-21T19:30:55.608Z,-2.21
2023-01-21T19:33:23.308Z,-2.25
2023-01-21T19:35:56.044Z,-2.25
2023-01-21T19:38:23.442Z,-2.23
2023-01-21T19:40:50.791Z,-2.15
2023-01-21T19:43:21.786Z,-2.12
2023-01-21T19:45:51.544Z,-2.18
2023-01-21T19:48:21.597Z,-2.21
2023-01-21T19:50:48.903Z,-2.18
2023-01-21T19:53:23.284Z,-2.26
2023-01-21T19:55:50.989Z,-2.18
2023-01-21T19:58:25.525Z,-2.17
2023-01-21T20:00:56.391Z,-2.23
2023-01-21T20:03:27.100Z,-2.17
2023-01-21T20:05:59.868Z,-2.23
2023-01-21T20:12:04.177Z,-2.09
2023-01-21T20:14:33.478Z,-2.16
2023-01-21T20:17:00.195Z,-2.14
2023-01-21T20:19:27.628Z,-2.18
2023-01-21T20:22:02.171Z,-2.16
2023-01-21T20:24:30.606Z,-2.13
2023-01-21T20:26:58.743Z,-2.13
2023-01-21T20:29:27.119Z,-2.23
2023-01-21T20:31:54.557Z,-2.14
2023-01-21T20:34:21.564Z,-2.14
2023-01-21T20:36:49.696Z,-2.14
2023-01-21T20:39:16.676Z,-2.14
2023-01-21T20:41:43.931Z,-2.15
2023-01-21T20:44:10.908Z,-2.21
2023-01-21T20:46:38.902Z,-2.16
2023-01-21T20:49:05.887Z,-2.13
2023-01-21T20:51:32.636Z,-2.20
2023-01-21T20:53:59.391Z,-2.15
2023-01-21T20:56:30.237Z,-2.10
2023-01-21T20:58:57.616Z,-2.10
2023-01-21T21:01:26.576Z,-2.09
2023-01-21T21:03:53.623Z,-2.10
2023-01-21T21:06:23.878Z,-2.23
2023-01-21T21:08:51.290Z,-2.13
2023-01-21T21:11:19.161Z,-2.15
2023-01-21T21:13:48.503Z,-2.15
2023-01-21T21:16:30.058Z,-2.15
2023-01-21T21:18:57.012Z,-2.11
2023-01-21T21:21:24.348Z,-2.06
2023-01-21T21:23:52.784Z,-2.15
2023-01-21T21:26:26.537Z,-2.07
2023-01-21T21:28:57.918Z,-2.07
2023-01-21T21:31:26.793Z,-2.10
2023-01-21T21:33:53.869Z,-2.10
2023-01-21T21:36:24.665Z,-2.05
2023-01-21T21:38:55.646Z,-2.04
2023-01-21T21:41:44.077Z,-2.04
2023-01-21T21:44:11.943Z,-2.16
2023-01-21T21:46:58.032Z,-2.11
2023-01-21T21:49:24.956Z,-2.07
2023-01-21T21:51:51.932Z,-2.11
2023-01-21T21:54:19.023Z,-2.09
2023-01-21T21:56:47.870Z,-1.98
2023-01-21T21:59:15.528Z,-2.01
2023-01-21T22:01:44.329Z,-2.10
2023-01-21T22:04:11.771Z,-2.05
2023-01-21T22:06:39.245Z,-2.01
2023-01-21T22:09:06.359Z,-2.06
2023-01-21T22:11:33.637Z,-1.96
2023-01-21T22:14:04.124Z,-1.95
2023-01-21T22:16:32.300Z,-1.94
2023-01-21T22:19:01.038Z,-2.15
2023-01-21T22:21:34.084Z,-2.05
2023-01-21T22:24:03.489Z,-2.00
2023-01-21T22:26:30.617Z,-1.98
2023-01-21T22:28:57.858Z,-1.94
2023-01-21T22:31:28.203Z,-1.93
2023-01-21T22:33:56.446Z,-1.95
2023-01-21T22:36:26.233Z,-1.96
2023-01-21T22:38:53.689Z,-2.05
2023-01-21T22:41:22.754Z,-2.00
2023-01-21T22:43:50.786Z,-2.04
2023-01-21T22:46:27.331Z,-2.05
2023-01-21T22:48:54.651Z,-2.14
2023-01-21T22:51:23.177Z,-2.00
2023-01-21T22:53:51.130Z,-1.91
2023-01-21T22:56:31.496Z,-1.91
2023-01-21T22:59:06.871Z,-1.93
2023-01-21T23:01:33.747Z,-1.94
2023-01-21T23:04:00.896Z,-2.14
2023-01-21T23:06:27.882Z,-2.04
2023-01-21T23:08:55.155Z,-1.95
2023-01-21T23:11:22.159Z,-1.94
2023-01-21T23:13:53.464Z,-1.88
2023-01-21T23:16:21.238Z,-1.92
2023-01-21T23:18:49.048Z,-1.92
2023-01-21T23:21:20.023Z,-1.99
2023-01-21T23:23:47.053Z,-1.99
2023-01-21T23:26:14.973Z,-1.83
2023-01-21T23:28:41.799Z,-1.98
2023-01-21T23:31:15.350Z,-1.88
2023-01-21T23:33:43.098Z,-1.85
2023-01-21T23:36:13.731Z,-1.93
2023-01-21T23:38:41.795Z,-1.88
2023-01-21T23:41:12.554Z,-1.88
2023-01-21T23:43:40.113Z,-1.93
2023-01-21T23:46:11.352Z,-1.98
2023-01-21T23:48:38.712Z,-1.96
2023-01-21T23:51:08.522Z,-1.92
2023-01-21T23:53:35.712Z,-2.00
2023-01-21T23:56:14.166Z,-1.98
2023-01-21T23:58:41.486Z,-2.03
